sensor_id;sensor_type;location;lat;lon;timestamp;temperature;humidity
10678;DHT22;5387;48.722;9.110;2023-03-01T00:01:28;-2.10;99.90
10678;DHT22;5387;48.722;9.110;2023-03-01T00:03:56;-2.10;99.90
10678;DHT22;5387;48.722;9.110;2023-03-01T00:06:24;-2.20;99.90
10678;DHT22;5387;48.722;9.110;2023-03-01T00:08:51;-2.20;99.90
10678;DHT22;5387;48.722;9.110;2023-03-01T00:11:22;-2.20;99.90
10678;DHT22;5387;48.722;9.110;2023-03-01T00:13:51;-2.20;99.90
10678;DHT22;5387;48.722;9.110;2023-03-01T00:16:20;-2.20;99.90
10678;DHT22;5387;48.722;9.110;2023-03-01T00:18:47;-2.20;99.90
10678;DHT22;5387;48.722;9.110;2023-03-01T00:21:15;-2.20;99.90
10678;DHT22;5387;48.722;9.110;2023-03-01T00:23:43;-2.20;99.90
10678;DHT22;5387;48.722;9.110;2023-03-01T00:26:12;-2.20;99.90
10678;DHT22;5387;48.722;9.110;2023-03-01T00:28:41;-2.20;99.90
10678;DHT22;5387;48.722;9.110;2023-03-01T00:31:10;-2.10;99.90
10678;DHT22;5387;48.722;9.110;2023-03-01T00:33:38;-2.20;99.90
10678;DHT22;5387;48.722;9.110;2023-03-01T00:36:06;-2.20;99.90
10678;DHT22;5387;48.722;9.110;2023-03-01T00:38:34;-2.20;99.90
10678;DHT22;5387;48.722;9.110;2023-03-01T00:41:03;-2.30;99.90
10678;DHT22;5387;48.722;9.110;2023-03-01T00:43:30;-2.30;99.90
10678;DHT22;5387;48.722;9.110;2023-03-01T00:46:04;-2.30;99.90
10678;DHT22;5387;48.722;9.110;2023-03-01T00:48:31;-2.40;99.90
10678;DHT22;5387;48.722;9.110;2023-03-01T00:51:04;-2.40;99.90
10678;DHT22;5387;48.722;9.110;2023-03-01T00:53:31;-2.40;99.90
10678;DHT22;5387;48.722;9.110;2023-03-01T00:55:58;-2.50;99.90
10678;DHT22;5387;48.722;9.110;2023-03-01T00:58:25;-2.50;99.90
10678;DHT22;5387;48.722;9.110;2023-03-01T01:00:52;-2.50;99.90
10678;DHT22;5387;48.722;9.110;2023-03-01T01:03:21;-2.50;99.90
10678;DHT22;5387;48.722;9.110;2023-03-01T01:05:50;-2.50;99.90
10678;DHT22;5387;48.722;9.110;2023-03-01T01:08:17;-2.50;99.90
10678;DHT22;5387;48.722;9.110;2023-03-01T01:10:44;-2.50;99.90
10678;DHT22;5387;48.722;9.110;2023-03-01T01:13:11;-2.50;99.90
10678;DHT22;5387;48.722;9.110;2023-03-01T01:15:38;-2.40;99.90
10678;DHT22;5387;48.722;9.110;2023-03-01T01:18:05;-2.50;99.90
10678;DHT22;5387;48.722;9.110;2023-03-01T01:20:35;-2.60;99.90
10678;DHT22;5387;48.722;9.110;2023-03-01T01:23:02;-2.60;99.90
10678;DHT22;5387;48.722;9.110;2023-03-01T01:25:34;-2.60;99.90
10678;DHT22;5387;48.722;9.110;2023-03-01T01:28:01;-2.60;99.90
10678;DHT22;5387;48.722;9.110;2023-03-01T01:30:28;-2.60;99.90
10678;DHT22;5387;48.722;9.110;2023-03-01T01:32:54;-2.50;99.90
10678;DHT22;5387;48.722;9.110;2023-03-01T01:35:21;-2.60;99.90
10678;DHT22;5387;48.722;9.110;2023-03-01T01:37:49;-2.50;99.90
10678;DHT22;5387;48.722;9.110;2023-03-01T01:40:16;-2.60;99.90
10678;DHT22;5387;48.722;9.110;2023-03-01T01:42:43;-2.60;99.90
10678;DHT22;5387;48.722;9.110;2023-03-01T01:45:29;-2.70;99.90
10678;DHT22;5387;48.722;9.110;2023-03-01T01:48:00;-2.70;99.90
10678;DHT22;5387;48.722;9.110;2023-03-01T01:50:29;-2.80;99.90
10678;DHT22;5387;48.722;9.110;2023-03-01T01:53:06;-2.80;99.90
10678;DHT22;5387;48.722;9.110;2023-03-01T01:55:37;-2.90;99.90
10678;DHT22;5387;48.722;9.110;2023-03-01T01:58:07;-2.90;99.90
10678;DHT22;5387;48.722;9.110;2023-03-01T02:00:37;-2.90;99.90
10678;DHT22;5387;48.722;9.110;2023-03-01T02:03:08;-2.90;99.90
10678;DHT22;5387;48.722;9.110;2023-03-01T02:05:40;-2.80;99.90
10678;DHT22;5387;48.722;9.110;2023-03-01T02:08:12;-2.70;99.90
10678;DHT22;5387;48.722;9.110;2023-03-01T02:10:40;-2.50;99.90
10678;DHT22;5387;48.722;9.110;2023-03-01T02:13:07;-2.30;99.90
10678;DHT22;5387;48.722;9.110;2023-03-01T02:15:36;-2.20;99.90
10678;DHT22;5387;48.722;9.110;2023-03-01T02:18:04;-2.30;99.90
10678;DHT22;5387;48.722;9.110;2023-03-01T02:20:37;-2.20;99.90
10678;DHT22;5387;48.722;9.110;2023-03-01T02:23:07;-2.30;99.90
10678;DHT22;5387;48.722;9.110;2023-03-01T02:25:39;-2.10;99.90
10678;DHT22;5387;48.722;9.110;2023-03-01T02:30:39;-1.90;99.90
10678;DHT22;5387;48.722;9.110;2023-03-01T02:33:26;-1.80;99.90
10678;DHT22;5387;48.722;9.110;2023-03-01T02:35:53;-1.60;99.90
10678;DHT22;5387;48.722;9.110;2023-03-01T02:38:21;-1.60;99.90
10678;DHT22;5387;48.722;9.110;2023-03-01T02:40:50;-1.50;99.90
10678;DHT22;5387;48.722;9.110;2023-03-01T02:43:19;-1.50;99.90
10678;DHT22;5387;48.722;9.110;2023-03-01T02:45:49;-1.60;99.90
10678;DHT22;5387;48.722;9.110;2023-03-01T02:48:16;-1.70;99.90
10678;DHT22;5387;48.722;9.110;2023-03-01T02:50:52;-1.80;99.90
10678;DHT22;5387;48.722;9.110;2023-03-01T02:53:27;-1.70;99.90
10678;DHT22;5387;48.722;9.110;2023-03-01T02:55:55;-1.70;99.90
10678;DHT22;5387;48.722;9.110;2023-03-01T02:58:21;-1.60;99.90
10678;DHT22;5387;48.722;9.110;2023-03-01T03:00:50;-1.60;99.90
10678;DHT22;5387;48.722;9.110;2023-03-01T03:03:20;-1.50;99.90
10678;DHT22;5387;48.722;9.110;2023-03-01T03:05:47;-1.60;99.90
10678;DHT22;5387;48.722;9.110;2023-03-01T03:08:15;-1.60;99.90
10678;DHT22;5387;48.722;9.110;2023-03-01T03:10:49;-1.50;99.90
10678;DHT22;5387;48.722;9.110;2023-03-01T03:13:16;-1.40;99.90
10678;DHT22;5387;48.722;9.110;2023-03-01T03:15:43;-1.40;99.90
10678;DHT22;5387;48.722;9.110;2023-03-01T03:18:17;-1.40;99.90
10678;DHT22;5387;48.722;9.110;2023-03-01T03:20:44;-1.50;99.90
10678;DHT22;5387;48.722;9.110;2023-03-01T03:23:11;-1.40;99.90
10678;DHT22;5387;48.722;9.110;2023-03-01T03:25:39;-1.40;99.90
10678;DHT22;5387;48.722;9.110;2023-03-01T03:28:06;-1.50;99.90
10678;DHT22;5387;48.722;9.110;2023-03-01T03:30:37;-1.50;99.90
10678;DHT22;5387;48.722;9.110;2023-03-01T03:33:05;-1.50;99.90
10678;DHT22;5387;48.722;9.110;2023-03-01T03:35:39;-1.40;99.90
10678;DHT22;5387;48.722;9.110;2023-03-01T03:38:08;-1.40;99.90
10678;DHT22;5387;48.722;9.110;2023-03-01T03:40:42;-1.50;99.90
10678;DHT22;5387;48.722;9.110;2023-03-01T03:43:11;-1.50;99.90
10678;DHT22;5387;48.722;9.110;2023-03-01T03:45:39;-1.40;99.90
10678;DHT22;5387;48.722;9.110;2023-03-01T03:48:07;-1.40;99.90
10678;DHT22;5387;48.722;9.110;2023-03-01T03:50:37;-1.40;99.90
10678;DHT22;5387;48.722;9.110;2023-03-01T03:53:07;-1.40;99.90
10678;DHT22;5387;48.722;9.110;2023-03-01T03:55:34;-1.40;99.90
10678;DHT22;5387;48.722;9.110;2023-03-01T03:58:05;-1.40;99.90
10678;DHT22;5387;48.722;9.110;2023-03-01T04:00:33;-1.30;99.90
10678;DHT22;5387;48.722;9.110;2023-03-01T04:03:01;-1.20;99.90
10678;DHT22;5387;48.722;9.110;2023-03-01T04:05:28;-1.30;99.90
10678;DHT22;5387;48.722;9.110;2023-03-01T04:07:57;-1.30;99.90
10678;DHT22;5387;48.722;9.110;2023-03-01T04:10:34;-1.30;99.90
10678;DHT22;5387;48.722;9.110;2023-03-01T04:13:01;-1.10;99.90
10678;DHT22;5387;48.722;9.110;2023-03-01T04:15:28;-1.20;99.90
10678;DHT22;5387;48.722;9.110;2023-03-01T04:17:55;-1.20;99.90
10678;DHT22;5387;48.722;9.110;2023-03-01T04:20:24;-1.20;99.90
10678;DHT22;5387;48.722;9.110;2023-03-01T04:22:52;-1.10;99.90
10678;DHT22;5387;48.722;9.110;2023-03-01T04:25:20;-1.10;99.90
10678;DHT22;5387;48.722;9.110;2023-03-01T04:27:47;-1.10;99.90
10678;DHT22;5387;48.722;9.110;2023-03-01T04:30:14;-1.00;99.90
10678;DHT22;5387;48.722;9.110;2023-03-01T04:32:41;-1.00;99.90
10678;DHT22;5387;48.722;9.110;2023-03-01T04:35:09;-1.00;99.90
10678;DHT22;5387;48.722;9.110;2023-03-01T04:37:35;-0.90;99.90
10678;DHT22;5387;48.722;9.110;2023-03-01T04:40:03;-1.00;99.90
10678;DHT22;5387;48.722;9.110;2023-03-01T04:42:39;-1.00;99.90
10678;DHT22;5387;48.722;9.110;2023-03-01T04:45:07;-0.90;99.90
10678;DHT22;5387;48.722;9.110;2023-03-01T04:47:39;-1.00;99.90
10678;DHT22;5387;48.722;9.110;2023-03-01T04:50:07;-1.00;99.90
10678;DHT22;5387;48.722;9.110;2023-03-01T04:52:34;-0.80;99.90
10678;DHT22;5387;48.722;9.110;2023-03-01T04:55:01;-0.80;99.90
10678;DHT22;5387;48.722;9.110;2023-03-01T04:57:29;-1.00;99.90
10678;DHT22;5387;48.722;9.110;2023-03-01T04:59:57;-1.00;99.90
10678;DHT22;5387;48.722;9.110;2023-03-01T05:02:24;-0.90;99.90
10678;DHT22;5387;48.722;9.110;2023-03-01T05:04:51;-0.80;99.90
10678;DHT22;5387;48.722;9.110;2023-03-01T05:07:23;-0.80;99.90
10678;DHT22;5387;48.722;9.110;2023-03-01T05:09:50;-0.80;99.90
10678;DHT22;5387;48.722;9.110;2023-03-01T05:12:17;-0.90;99.90
10678;DHT22;5387;48.722;9.110;2023-03-01T05:14:43;-0.70;99.90
10678;DHT22;5387;48.722;9.110;2023-03-01T05:17:11;-0.50;99.90
10678;DHT22;5387;48.722;9.110;2023-03-01T05:19:38;-0.40;99.90
10678;DHT22;5387;48.722;9.110;2023-03-01T05:22:08;-0.30;99.90
10678;DHT22;5387;48.722;9.110;2023-03-01T05:24:35;-0.40;99.90
10678;DHT22;5387;48.722;9.110;2023-03-01T05:27:02;-0.30;99.90
10678;DHT22;5387;48.722;9.110;2023-03-01T05:29:31;-0.20;99.90
10678;DHT22;5387;48.722;9.110;2023-03-01T05:32:01;-0.30;99.90
10678;DHT22;5387;48.722;9.110;2023-03-01T05:34:31;-0.30;99.90
10678;DHT22;5387;48.722;9.110;2023-03-01T05:36:58;-0.50;99.90
10678;DHT22;5387;48.722;9.110;2023-03-01T05:39:27;-0.50;99.90
10678;DHT22;5387;48.722;9.110;2023-03-01T05:41:55;-0.50;99.90
10678;DHT22;5387;48.722;9.110;2023-03-01T05:44:23;-0.80;99.90
10678;DHT22;5387;48.722;9.110;2023-03-01T05:46:51;-0.70;99.90
10678;DHT22;5387;48.722;9.110;2023-03-01T05:49:18;-0.60;99.90
10678;DHT22;5387;48.722;9.110;2023-03-01T05:51:50;-0.50;99.90
10678;DHT22;5387;48.722;9.110;2023-03-01T05:54:17;-0.40;99.90
10678;DHT22;5387;48.722;9.110;2023-03-01T05:56:45;-0.40;99.90
10678;DHT22;5387;48.722;9.110;2023-03-01T05:59:12;-0.40;99.90
10678;DHT22;5387;48.722;9.110;2023-03-01T06:01:40;-0.30;99.90
10678;DHT22;5387;48.722;9.110;2023-03-01T06:04:07;-0.30;99.90
10678;DHT22;5387;48.722;9.110;2023-03-01T06:06:35;-0.40;99.90
10678;DHT22;5387;48.722;9.110;2023-03-01T06:09:04;-0.60;99.90
10678;DHT22;5387;48.722;9.110;2023-03-01T06:11:33;-0.60;99.90
10678;DHT22;5387;48.722;9.110;2023-03-01T06:14:00;-0.50;99.90
10678;DHT22;5387;48.722;9.110;2023-03-01T06:16:27;-0.50;99.90
10678;DHT22;5387;48.722;9.110;2023-03-01T06:18:54;-0.40;99.90
10678;DHT22;5387;48.722;9.110;2023-03-01T06:21:20;-0.30;99.90
10678;DHT22;5387;48.722;9.110;2023-03-01T06:23:47;-0.20;99.90
10678;DHT22;5387;48.722;9.110;2023-03-01T06:26:16;-0.30;99.90
10678;DHT22;5387;48.722;9.110;2023-03-01T06:28:43;-0.40;99.90
10678;DHT22;5387;48.722;9.110;2023-03-01T06:31:11;-0.30;99.90
10678;DHT22;5387;48.722;9.110;2023-03-01T06:33:38;-0.10;99.90
10678;DHT22;5387;48.722;9.110;2023-03-01T06:36:06;-0.20;99.90
10678;DHT22;5387;48.722;9.110;2023-03-01T06:38:33;-0.40;99.90
10678;DHT22;5387;48.722;9.110;2023-03-01T06:41:00;-0.30;99.90
10678;DHT22;5387;48.722;9.110;2023-03-01T06:43:28;-0.50;99.90
10678;DHT22;5387;48.722;9.110;2023-03-01T06:45:55;-0.50;99.90
10678;DHT22;5387;48.722;9.110;2023-03-01T06:48:22;-0.50;99.90
10678;DHT22;5387;48.722;9.110;2023-03-01T06:50:49;-0.50;99.90
10678;DHT22;5387;48.722;9.110;2023-03-01T06:53:16;-0.50;99.90
10678;DHT22;5387;48.722;9.110;2023-03-01T06:55:43;-0.50;99.90
10678;DHT22;5387;48.722;9.110;2023-03-01T06:58:10;-0.40;99.90
10678;DHT22;5387;48.722;9.110;2023-03-01T07:00:38;-0.30;99.90
10678;DHT22;5387;48.722;9.110;2023-03-01T07:03:06;-0.40;99.90
10678;DHT22;5387;48.722;9.110;2023-03-01T07:05:33;-0.30;99.90
10678;DHT22;5387;48.722;9.110;2023-03-01T07:08:01;-0.10;99.90
10678;DHT22;5387;48.722;9.110;2023-03-01T07:10:28;-0.40;99.90
10678;DHT22;5387;48.722;9.110;2023-03-01T07:12:55;-0.40;99.90
10678;DHT22;5387;48.722;9.110;2023-03-01T07:15:22;-0.50;99.90
10678;DHT22;5387;48.722;9.110;2023-03-01T07:17:50;-0.50;99.90
10678;DHT22;5387;48.722;9.110;2023-03-01T07:20:18;-0.60;99.90
10678;DHT22;5387;48.722;9.110;2023-03-01T07:22:48;-0.80;99.90
10678;DHT22;5387;48.722;9.110;2023-03-01T07:25:14;-0.70;99.90
10678;DHT22;5387;48.722;9.110;2023-03-01T07:27:41;-0.60;99.90
10678;DHT22;5387;48.722;9.110;2023-03-01T07:30:09;-0.60;99.90
10678;DHT22;5387;48.722;9.110;2023-03-01T07:32:36;-0.60;99.90
10678;DHT22;5387;48.722;9.110;2023-03-01T07:35:05;-0.50;99.90
10678;DHT22;5387;48.722;9.110;2023-03-01T07:37:32;-0.50;99.90
10678;DHT22;5387;48.722;9.110;2023-03-01T07:39:59;-0.60;99.90
10678;DHT22;5387;48.722;9.110;2023-03-01T07:42:26;-0.60;99.90
10678;DHT22;5387;48.722;9.110;2023-03-01T07:44:53;-0.50;99.90
10678;DHT22;5387;48.722;9.110;2023-03-01T07:47:20;-0.50;99.90
10678;DHT22;5387;48.722;9.110;2023-03-01T07:49:46;-0.40;99.90
10678;DHT22;5387;48.722;9.110;2023-03-01T07:52:15;-0.50;99.90
10678;DHT22;5387;48.722;9.110;2023-03-01T07:54:43;-0.40;99.90
10678;DHT22;5387;48.722;9.110;2023-03-01T07:57:10;-0.40;99.90
10678;DHT22;5387;48.722;9.110;2023-03-01T07:59:37;-0.30;99.90
10678;DHT22;5387;48.722;9.110;2023-03-01T08:02:05;-0.30;99.90
10678;DHT22;5387;48.722;9.110;2023-03-01T08:04:32;-0.20;99.90
10678;DHT22;5387;48.722;9.110;2023-03-01T08:06:59;-0.20;99.90
10678;DHT22;5387;48.722;9.110;2023-03-01T08:09:27;-0.20;99.90
10678;DHT22;5387;48.722;9.110;2023-03-01T08:11:55;-0.20;99.90
10678;DHT22;5387;48.722;9.110;2023-03-01T08:14:22;-0.20;99.90
10678;DHT22;5387;48.722;9.110;2023-03-01T08:16:50;-0.20;99.90
10678;DHT22;5387;48.722;9.110;2023-03-01T08:19:16;-0.10;99.90
10678;DHT22;5387;48.722;9.110;2023-03-01T08:21:44;0.00;99.90
10678;DHT22;5387;48.722;9.110;2023-03-01T08:24:10;-0.10;99.90
10678;DHT22;5387;48.722;9.110;2023-03-01T08:26:38;-0.10;99.90
10678;DHT22;5387;48.722;9.110;2023-03-01T08:29:05;0.00;99.90
10678;DHT22;5387;48.722;9.110;2023-03-01T08:31:34;0.10;99.90
10678;DHT22;5387;48.722;9.110;2023-03-01T08:34:04;0.10;99.90
10678;DHT22;5387;48.722;9.110;2023-03-01T08:36:33;0.10;99.90
10678;DHT22;5387;48.722;9.110;2023-03-01T08:39:01;0.30;99.90
10678;DHT22;5387;48.722;9.110;2023-03-01T08:41:28;0.30;99.90
10678;DHT22;5387;48.722;9.110;2023-03-01T08:43:56;0.40;99.90
10678;DHT22;5387;48.722;9.110;2023-03-01T08:46:25;0.50;99.90
10678;DHT22;5387;48.722;9.110;2023-03-01T08:48:52;0.50;99.90
10678;DHT22;5387;48.722;9.110;2023-03-01T08:51:20;0.50;99.90
10678;DHT22;5387;48.722;9.110;2023-03-01T08:53:48;0.60;99.90
10678;DHT22;5387;48.722;9.110;2023-03-01T08:56:15;0.60;99.90
10678;DHT22;5387;48.722;9.110;2023-03-01T08:58:44;0.60;99.90
10678;DHT22;5387;48.722;9.110;2023-03-01T09:01:14;0.60;99.90
10678;DHT22;5387;48.722;9.110;2023-03-01T09:03:42;0.70;99.90
10678;DHT22;5387;48.722;9.110;2023-03-01T09:06:10;0.80;99.90
10678;DHT22;5387;48.722;9.110;2023-03-01T09:08:38;0.80;99.90
10678;DHT22;5387;48.722;9.110;2023-03-01T09:11:06;0.80;99.90
10678;DHT22;5387;48.722;9.110;2023-03-01T09:13:33;1.00;99.90
10678;DHT22;5387;48.722;9.110;2023-03-01T09:16:02;1.30;99.90
10678;DHT22;5387;48.722;9.110;2023-03-01T09:18:31;1.50;99.90
10678;DHT22;5387;48.722;9.110;2023-03-01T09:21:01;1.50;99.90
10678;DHT22;5387;48.722;9.110;2023-03-01T09:23:33;1.60;99.90
10678;DHT22;5387;48.722;9.110;2023-03-01T09:26:00;1.60;99.90
10678;DHT22;5387;48.722;9.110;2023-03-01T09:28:27;1.50;99.90
10678;DHT22;5387;48.722;9.110;2023-03-01T09:30:53;1.70;99.90
10678;DHT22;5387;48.722;9.110;2023-03-01T09:33:23;1.70;99.90
10678;DHT22;5387;48.722;9.110;2023-03-01T09:35:56;1.80;99.90
10678;DHT22;5387;48.722;9.110;2023-03-01T09:38:23;2.00;99.90
10678;DHT22;5387;48.722;9.110;2023-03-01T09:40:49;2.00;99.90
10678;DHT22;5387;48.722;9.110;2023-03-01T09:43:23;1.80;99.90
10678;DHT22;5387;48.722;9.110;2023-03-01T09:45:53;1.90;99.90
10678;DHT22;5387;48.722;9.110;2023-03-01T09:48:23;2.00;99.90
10678;DHT22;5387;48.722;9.110;2023-03-01T09:50:52;2.00;99.90
10678;DHT22;5387;48.722;9.110;2023-03-01T09:53:22;2.20;99.90
10678;DHT22;5387;48.722;9.110;2023-03-01T09:55:54;2.20;99.90
10678;DHT22;5387;48.722;9.110;2023-03-01T09:58:31;2.60;99.90
10678;DHT22;5387;48.722;9.110;2023-03-01T10:01:06;2.70;99.90
10678;DHT22;5387;48.722;9.110;2023-03-01T10:03:40;2.60;99.90
10678;DHT22;5387;48.722;9.110;2023-03-01T10:06:14;2.60;99.90
10678;DHT22;5387;48.722;9.110;2023-03-01T10:08:42;2.80;99.90
10678;DHT22;5387;48.722;9.110;2023-03-01T10:11:20;3.00;99.90
10678;DHT22;5387;48.722;9.110;2023-03-01T10:13:52;3.30;99.90
10678;DHT22;5387;48.722;9.110;2023-03-01T10:16:25;3.30;99.90
10678;DHT22;5387;48.722;9.110;2023-03-01T10:18:56;3.10;99.90
10678;DHT22;5387;48.722;9.110;2023-03-01T10:21:27;3.20;99.90
10678;DHT22;5387;48.722;9.110;2023-03-01T10:24:04;3.50;99.90
10678;DHT22;5387;48.722;9.110;2023-03-01T10:26:43;3.70;99.90
10678;DHT22;5387;48.722;9.110;2023-03-01T10:29:14;3.70;99.90
10678;DHT22;5387;48.722;9.110;2023-03-01T10:31:43;3.70;99.90
10678;DHT22;5387;48.722;9.110;2023-03-01T10:34:13;3.60;99.90
10678;DHT22;5387;48.722;9.110;2023-03-01T10:36:42;3.80;99.90
10678;DHT22;5387;48.722;9.110;2023-03-01T10:39:15;4.00;99.90
10678;DHT22;5387;48.722;9.110;2023-03-01T10:41:54;3.90;99.90
10678;DHT22;5387;48.722;9.110;2023-03-01T10:44:38;4.10;99.90
10678;DHT22;5387;48.722;9.110;2023-03-01T10:47:13;4.10;99.90
10678;DHT22;5387;48.722;9.110;2023-03-01T10:50:00;3.90;99.90
10678;DHT22;5387;48.722;9.110;2023-03-01T10:52:32;4.00;99.90
10678;DHT22;5387;48.722;9.110;2023-03-01T10:55:02;4.10;99.90
10678;DHT22;5387;48.722;9.110;2023-03-01T10:57:35;3.90;99.90
10678;DHT22;5387;48.722;9.110;2023-03-01T11:00:24;3.40;99.90
10678;DHT22;5387;48.722;9.110;2023-03-01T11:03:08;3.40;99.90
10678;DHT22;5387;48.722;9.110;2023-03-01T11:05:36;3.90;99.90
10678;DHT22;5387;48.722;9.110;2023-03-01T11:08:04;3.80;99.90
10678;DHT22;5387;48.722;9.110;2023-03-01T11:10:33;4.00;99.90
10678;DHT22;5387;48.722;9.110;2023-03-01T11:13:07;4.20;99.90
10678;DHT22;5387;48.722;9.110;2023-03-01T11:15:35;4.10;99.90
10678;DHT22;5387;48.722;9.110;2023-03-01T11:18:02;4.20;99.90
10678;DHT22;5387;48.722;9.110;2023-03-01T11:20:31;4.10;99.90
10678;DHT22;5387;48.722;9.110;2023-03-01T11:23:01;4.30;99.90
10678;DHT22;5387;48.722;9.110;2023-03-01T11:25:34;4.50;99.90
10678;DHT22;5387;48.722;9.110;2023-03-01T11:28:04;4.80;99.90
10678;DHT22;5387;48.722;9.110;2023-03-01T11:30:34;4.90;99.90
10678;DHT22;5387;48.722;9.110;2023-03-01T11:33:11;5.10;99.90
10678;DHT22;5387;48.722;9.110;2023-03-01T11:35:44;6.40;99.90
10678;DHT22;5387;48.722;9.110;2023-03-01T11:38:22;6.70;99.90
10678;DHT22;5387;48.722;9.110;2023-03-01T11:40:54;7.10;99.90
10678;DHT22;5387;48.722;9.110;2023-03-01T11:43:28;7.90;99.90
10678;DHT22;5387;48.722;9.110;2023-03-01T11:46:29;8.80;99.90
10678;DHT22;5387;48.722;9.110;2023-03-01T11:49:05;8.90;99.90
10678;DHT22;5387;48.722;9.110;2023-03-01T11:51:48;7.70;99.90
10678;DHT22;5387;48.722;9.110;2023-03-01T11:54:29;6.90;99.90
10678;DHT22;5387;48.722;9.110;2023-03-01T11:57:07;7.60;99.90
10678;DHT22;5387;48.722;9.110;2023-03-01T11:59:50;7.90;99.90
10678;DHT22;5387;48.722;9.110;2023-03-01T12:02:34;8.10;99.90
10678;DHT22;5387;48.722;9.110;2023-03-01T12:05:24;7.00;99.90
10678;DHT22;5387;48.722;9.110;2023-03-01T12:07:58;6.10;99.90
10678;DHT22;5387;48.722;9.110;2023-03-01T12:10:33;6.10;99.90
10678;DHT22;5387;48.722;9.110;2023-03-01T12:13:21;6.10;99.90
10678;DHT22;5387;48.722;9.110;2023-03-01T12:21:46;5.80;99.90
10678;DHT22;5387;48.722;9.110;2023-03-01T12:24:57;5.80;99.90
10678;DHT22;5387;48.722;9.110;2023-03-01T12:27:43;5.70;99.90
10678;DHT22;5387;48.722;9.110;2023-03-01T12:30:26;5.80;99.90
10678;DHT22;5387;48.722;9.110;2023-03-01T12:33:04;6.30;99.90
10678;DHT22;5387;48.722;9.110;2023-03-01T12:35:52;6.20;99.90
10678;DHT22;5387;48.722;9.110;2023-03-01T12:38:32;5.70;99.90
10678;DHT22;5387;48.722;9.110;2023-03-01T12:41:19;5.60;99.90
10678;DHT22;5387;48.722;9.110;2023-03-01T12:44:01;5.80;99.90
10678;DHT22;5387;48.722;9.110;2023-03-01T12:46:46;5.90;99.90
10678;DHT22;5387;48.722;9.110;2023-03-01T12:49:21;6.10;99.90
10678;DHT22;5387;48.722;9.110;2023-03-01T12:51:54;6.00;99.90
10678;DHT22;5387;48.722;9.110;2023-03-01T12:54:26;6.10;99.90
10678;DHT22;5387;48.722;9.110;2023-03-01T12:56:55;5.90;99.90
10678;DHT22;5387;48.722;9.110;2023-03-01T12:59:28;6.10;99.90
10678;DHT22;5387;48.722;9.110;2023-03-01T13:02:03;6.30;99.90
10678;DHT22;5387;48.722;9.110;2023-03-01T13:04:40;6.40;99.90
10678;DHT22;5387;48.722;9.110;2023-03-01T13:07:23;6.60;99.90
10678;DHT22;5387;48.722;9.110;2023-03-01T13:09:59;6.30;99.90
10678;DHT22;5387;48.722;9.110;2023-03-01T13:12:50;6.40;99.90
10678;DHT22;5387;48.722;9.110;2023-03-01T13:15:28;6.30;99.90
10678;DHT22;5387;48.722;9.110;2023-03-01T13:17:58;6.70;99.90
10678;DHT22;5387;48.722;9.110;2023-03-01T13:20:29;7.10;99.90
10678;DHT22;5387;48.722;9.110;2023-03-01T13:23:04;7.00;99.90
10678;DHT22;5387;48.722;9.110;2023-03-01T13:25:32;6.90;99.90
10678;DHT22;5387;48.722;9.110;2023-03-01T13:31:04;6.70;99.90
10678;DHT22;5387;48.722;9.110;2023-03-01T13:33:43;6.50;99.90
10678;DHT22;5387;48.722;9.110;2023-03-01T13:39:28;6.60;99.90
10678;DHT22;5387;48.722;9.110;2023-03-01T13:41:58;6.40;99.90
10678;DHT22;5387;48.722;9.110;2023-03-01T13:44:30;6.50;99.90
10678;DHT22;5387;48.722;9.110;2023-03-01T13:47:02;6.40;99.90
10678;DHT22;5387;48.722;9.110;2023-03-01T13:49:41;6.50;99.90
10678;DHT22;5387;48.722;9.110;2023-03-01T13:52:34;6.60;99.90
10678;DHT22;5387;48.722;9.110;2023-03-01T13:55:03;6.70;99.90
10678;DHT22;5387;48.722;9.110;2023-03-01T13:57:34;6.60;99.90
10678;DHT22;5387;48.722;9.110;2023-03-01T14:00:01;6.70;99.90
10678;DHT22;5387;48.722;9.110;2023-03-01T14:02:30;6.80;99.90
10678;DHT22;5387;48.722;9.110;2023-03-01T14:04:59;6.60;99.90
10678;DHT22;5387;48.722;9.110;2023-03-01T14:07:27;6.50;99.90
10678;DHT22;5387;48.722;9.110;2023-03-01T14:09:58;6.30;99.90
10678;DHT22;5387;48.722;9.110;2023-03-01T14:12:35;6.20;99.90
10678;DHT22;5387;48.722;9.110;2023-03-01T14:15:15;6.30;99.90
10678;DHT22;5387;48.722;9.110;2023-03-01T14:18:03;6.20;99.90
10678;DHT22;5387;48.722;9.110;2023-03-01T14:20:38;6.20;99.90
10678;DHT22;5387;48.722;9.110;2023-03-01T14:23:10;6.30;99.90
10678;DHT22;5387;48.722;9.110;2023-03-01T14:25:38;6.30;99.90
10678;DHT22;5387;48.722;9.110;2023-03-01T14:28:16;6.00;99.90
10678;DHT22;5387;48.722;9.110;2023-03-01T14:30:45;6.20;99.90
10678;DHT22;5387;48.722;9.110;2023-03-01T14:33:21;6.10;99.90
10678;DHT22;5387;48.722;9.110;2023-03-01T14:35:58;5.90;99.90
10678;DHT22;5387;48.722;9.110;2023-03-01T14:38:31;5.80;99.90
10678;DHT22;5387;48.722;9.110;2023-03-01T14:41:00;5.90;99.90
10678;DHT22;5387;48.722;9.110;2023-03-01T14:43:29;6.00;99.90
10678;DHT22;5387;48.722;9.110;2023-03-01T14:45:57;6.00;99.90
10678;DHT22;5387;48.722;9.110;2023-03-01T14:48:24;6.10;99.90
10678;DHT22;5387;48.722;9.110;2023-03-01T14:50:53;6.00;99.90
10678;DHT22;5387;48.722;9.110;2023-03-01T14:53:24;6.10;99.90
10678;DHT22;5387;48.722;9.110;2023-03-01T14:55:52;6.20;99.90
10678;DHT22;5387;48.722;9.110;2023-03-01T14:58:22;6.30;99.90
10678;DHT22;5387;48.722;9.110;2023-03-01T15:00:52;6.40;99.90
10678;DHT22;5387;48.722;9.110;2023-03-01T15:03:24;6.00;99.90
10678;DHT22;5387;48.722;9.110;2023-03-01T15:05:51;6.00;99.90
10678;DHT22;5387;48.722;9.110;2023-03-01T15:08:23;6.10;99.90
10678;DHT22;5387;48.722;9.110;2023-03-01T15:11:01;6.00;99.90
10678;DHT22;5387;48.722;9.110;2023-03-01T15:13:31;5.90;99.90
10678;DHT22;5387;48.722;9.110;2023-03-01T15:16:06;6.10;99.90
10678;DHT22;5387;48.722;9.110;2023-03-01T15:18:34;6.10;99.90
10678;DHT22;5387;48.722;9.110;2023-03-01T15:21:07;6.10;99.90
10678;DHT22;5387;48.722;9.110;2023-03-01T15:23:37;6.00;99.90
10678;DHT22;5387;48.722;9.110;2023-03-01T15:26:05;6.00;99.90
10678;DHT22;5387;48.722;9.110;2023-03-01T15:28:33;5.90;99.90
10678;DHT22;5387;48.722;9.110;2023-03-01T15:31:05;5.90;99.90
10678;DHT22;5387;48.722;9.110;2023-03-01T15:33:38;5.90;99.90
10678;DHT22;5387;48.722;9.110;2023-03-01T15:36:35;5.90;99.90
10678;DHT22;5387;48.722;9.110;2023-03-01T15:39:05;6.00;99.90
10678;DHT22;5387;48.722;9.110;2023-03-01T15:41:38;5.80;99.90
10678;DHT22;5387;48.722;9.110;2023-03-01T15:44:16;5.70;99.90
10678;DHT22;5387;48.722;9.110;2023-03-01T15:46:46;5.70;99.90
10678;DHT22;5387;48.722;9.110;2023-03-01T15:49:27;5.60;99.90
10678;DHT22;5387;48.722;9.110;2023-03-01T15:51:57;5.70;99.90
10678;DHT22;5387;48.722;9.110;2023-03-01T15:54:26;5.70;99.90
10678;DHT22;5387;48.722;9.110;2023-03-01T15:56:54;5.70;99.90
10678;DHT22;5387;48.722;9.110;2023-03-01T15:59:21;5.70;99.90
10678;DHT22;5387;48.722;9.110;2023-03-01T16:01:48;5.70;99.90
10678;DHT22;5387;48.722;9.110;2023-03-01T16:04:17;5.70;99.90
10678;DHT22;5387;48.722;9.110;2023-03-01T16:06:49;5.70;99.90
10678;DHT22;5387;48.722;9.110;2023-03-01T16:09:20;5.60;99.90
10678;DHT22;5387;48.722;9.110;2023-03-01T16:11:48;5.50;99.90
10678;DHT22;5387;48.722;9.110;2023-03-01T16:14:15;5.60;99.90
10678;DHT22;5387;48.722;9.110;2023-03-01T16:16:42;5.60;99.90
10678;DHT22;5387;48.722;9.110;2023-03-01T16:19:09;5.60;99.90
10678;DHT22;5387;48.722;9.110;2023-03-01T16:21:37;5.50;99.90
10678;DHT22;5387;48.722;9.110;2023-03-01T16:24:04;5.60;99.90
10678;DHT22;5387;48.722;9.110;2023-03-01T16:26:31;5.40;99.90
10678;DHT22;5387;48.722;9.110;2023-03-01T16:29:00;5.40;99.90